US-0295 weather

John Muir Mt. Diablo Medical Center Heliport
Brentwood, California, United States

Public forecast

Using degrees Fahrenheit for public forecast. Weather courtesy of forecast.io.

METAR (pilot weather report)

Closest report is Livermore Municipal Airport, 14.4 nm (26.7 km) SSW. Retrieved 2019/06/19 09:53 UTC (53 minutes ago):

KLVK 190953Z AUTO 30006KT 9SM CLR 15/13 A2989 RMK AO2 SLP118 T01500128

TAF (pilot weather forecast)

Closest forecast is Livermore Municipal Airport, 14.4 nm (26.7 km) SSW. Retrieved 2019/06/19 06:27 UTC (4 hours ago):

TAF KLVK 190524Z 1906/2006 30008KT P6SM SKC FM191000 29005KT P6SM FEW010 FM191700 28008KT P6SM SKC FM192200 29014KT P6SM SKC